sensor_id;sensor_type;location;lat;lon;timestamp;temperature;humidity
5492;DHT22;2768;53.540;10.224;2022-10-04T00:04:24;13.90;99.90
5492;DHT22;2768;53.540;10.224;2022-10-04T00:10:22;14.00;99.90
5492;DHT22;2768;53.540;10.224;2022-10-04T00:16:24;14.00;99.90
5492;DHT22;2768;53.540;10.224;2022-10-04T00:22:23;14.10;99.90
5492;DHT22;2768;53.540;10.224;2022-10-04T00:28:43;14.20;99.90
5492;DHT22;2768;53.540;10.224;2022-10-04T00:34:46;14.20;99.90
5492;DHT22;2768;53.540;10.224;2022-10-04T00:40:45;14.20;99.90
5492;DHT22;2768;53.540;10.224;2022-10-04T00:46:42;14.30;99.90
5492;DHT22;2768;53.540;10.224;2022-10-04T00:52:40;14.30;99.90
5492;DHT22;2768;53.540;10.224;2022-10-04T00:58:44;14.20;99.90
5492;DHT22;2768;53.540;10.224;2022-10-04T01:04:44;14.10;99.90
5492;DHT22;2768;53.540;10.224;2022-10-04T01:10:42;14.10;99.90
5492;DHT22;2768;53.540;10.224;2022-10-04T01:16:38;14.10;99.90
5492;DHT22;2768;53.540;10.224;2022-10-04T01:22:36;14.20;99.90
5492;DHT22;2768;53.540;10.224;2022-10-04T01:28:33;14.10;99.90
5492;DHT22;2768;53.540;10.224;2022-10-04T01:34:28;14.10;99.90
5492;DHT22;2768;53.540;10.224;2022-10-04T01:40:23;14.10;99.90
5492;DHT22;2768;53.540;10.224;2022-10-04T01:46:22;14.10;99.90
5492;DHT22;2768;53.540;10.224;2022-10-04T01:52:21;13.90;99.90
5492;DHT22;2768;53.540;10.224;2022-10-04T01:58:19;13.80;99.90
5492;DHT22;2768;53.540;10.224;2022-10-04T02:04:17;13.70;99.90
5492;DHT22;2768;53.540;10.224;2022-10-04T02:10:16;13.70;99.90
5492;DHT22;2768;53.540;10.224;2022-10-04T02:16:12;13.80;99.90
5492;DHT22;2768;53.540;10.224;2022-10-04T02:22:07;13.70;99.90
5492;DHT22;2768;53.540;10.224;2022-10-04T02:28:01;13.70;99.90
5492;DHT22;2768;53.540;10.224;2022-10-04T02:33:57;13.60;99.90
5492;DHT22;2768;53.540;10.224;2022-10-04T02:39:57;13.60;99.90
5492;DHT22;2768;53.540;10.224;2022-10-04T02:45:55;13.30;99.90
5492;DHT22;2768;53.540;10.224;2022-10-04T02:51:53;13.20;99.90
5492;DHT22;2768;53.540;10.224;2022-10-04T02:57:50;13.20;99.90
5492;DHT22;2768;53.540;10.224;2022-10-04T03:03:45;13.40;99.90
5492;DHT22;2768;53.540;10.224;2022-10-04T03:09:40;13.50;99.90
5492;DHT22;2768;53.540;10.224;2022-10-04T03:15:34;13.60;99.90
5492;DHT22;2768;53.540;10.224;2022-10-04T03:21:27;13.60;99.90
5492;DHT22;2768;53.540;10.224;2022-10-04T03:27:25;13.60;99.90
5492;DHT22;2768;53.540;10.224;2022-10-04T03:33:22;13.70;99.90
5492;DHT22;2768;53.540;10.224;2022-10-04T03:39:19;13.70;99.90
5492;DHT22;2768;53.540;10.224;2022-10-04T03:45:18;13.70;99.90
5492;DHT22;2768;53.540;10.224;2022-10-04T03:51:15;13.70;99.90
5492;DHT22;2768;53.540;10.224;2022-10-04T03:57:11;13.70;99.90
5492;DHT22;2768;53.540;10.224;2022-10-04T04:03:08;13.70;99.90
5492;DHT22;2768;53.540;10.224;2022-10-04T04:09:06;13.70;99.90
5492;DHT22;2768;53.540;10.224;2022-10-04T04:15:01;13.70;99.90
5492;DHT22;2768;53.540;10.224;2022-10-04T04:21:01;13.70;99.90
5492;DHT22;2768;53.540;10.224;2022-10-04T04:26:57;13.60;99.90
5492;DHT22;2768;53.540;10.224;2022-10-04T04:32:53;13.70;99.90
5492;DHT22;2768;53.540;10.224;2022-10-04T04:38:50;13.70;99.90
5492;DHT22;2768;53.540;10.224;2022-10-04T04:45:04;13.70;99.90
5492;DHT22;2768;53.540;10.224;2022-10-04T04:50:58;13.70;99.90
5492;DHT22;2768;53.540;10.224;2022-10-04T04:56:54;13.70;99.90
5492;DHT22;2768;53.540;10.224;2022-10-04T05:02:53;13.70;99.90
5492;DHT22;2768;53.540;10.224;2022-10-04T05:08:49;13.50;99.90
5492;DHT22;2768;53.540;10.224;2022-10-04T05:14:46;13.60;99.90
5492;DHT22;2768;53.540;10.224;2022-10-04T05:20:43;13.60;99.90
5492;DHT22;2768;53.540;10.224;2022-10-04T05:26:40;13.60;99.90
5492;DHT22;2768;53.540;10.224;2022-10-04T05:32:45;13.50;99.90
5492;DHT22;2768;53.540;10.224;2022-10-04T05:38:47;13.50;99.90
5492;DHT22;2768;53.540;10.224;2022-10-04T05:44:47;13.40;99.90
5492;DHT22;2768;53.540;10.224;2022-10-04T05:50:43;13.50;99.90
5492;DHT22;2768;53.540;10.224;2022-10-04T06:03:13;13.40;99.90
5492;DHT22;2768;53.540;10.224;2022-10-04T06:09:18;13.40;99.90
5492;DHT22;2768;53.540;10.224;2022-10-04T06:21:43;13.40;99.90
5492;DHT22;2768;53.540;10.224;2022-10-04T06:27:54;13.40;99.90
5492;DHT22;2768;53.540;10.224;2022-10-04T06:34:07;13.40;99.90
5492;DHT22;2768;53.540;10.224;2022-10-04T06:40:28;13.40;99.90
5492;DHT22;2768;53.540;10.224;2022-10-04T06:46:32;13.40;99.90
5492;DHT22;2768;53.540;10.224;2022-10-04T06:52:39;13.20;99.90
5492;DHT22;2768;53.540;10.224;2022-10-04T07:05:17;13.00;99.90
5492;DHT22;2768;53.540;10.224;2022-10-04T07:11:15;13.00;99.90
5492;DHT22;2768;53.540;10.224;2022-10-04T07:17:12;13.10;99.90
5492;DHT22;2768;53.540;10.224;2022-10-04T07:23:12;13.20;99.90
5492;DHT22;2768;53.540;10.224;2022-10-04T07:29:14;13.30;99.90
5492;DHT22;2768;53.540;10.224;2022-10-04T07:35:25;13.20;99.90
5492;DHT22;2768;53.540;10.224;2022-10-04T07:41:28;13.20;99.90
5492;DHT22;2768;53.540;10.224;2022-10-04T07:47:25;13.30;99.90
5492;DHT22;2768;53.540;10.224;2022-10-04T07:53:20;13.30;99.90
5492;DHT22;2768;53.540;10.224;2022-10-04T07:59:30;13.40;99.90
5492;DHT22;2768;53.540;10.224;2022-10-04T08:05:33;13.30;99.90
5492;DHT22;2768;53.540;10.224;2022-10-04T08:11:37;13.40;99.90
5492;DHT22;2768;53.540;10.224;2022-10-04T08:17:46;13.40;99.90
5492;DHT22;2768;53.540;10.224;2022-10-04T08:23:59;13.50;99.90
5492;DHT22;2768;53.540;10.224;2022-10-04T08:30:03;13.60;99.90
5492;DHT22;2768;53.540;10.224;2022-10-04T08:36:09;13.60;99.90
5492;DHT22;2768;53.540;10.224;2022-10-04T08:48:50;13.60;99.90
5492;DHT22;2768;53.540;10.224;2022-10-04T08:55:28;13.70;99.90
5492;DHT22;2768;53.540;10.224;2022-10-04T09:01:48;13.70;99.90
5492;DHT22;2768;53.540;10.224;2022-10-04T09:14:46;13.90;99.90
5492;DHT22;2768;53.540;10.224;2022-10-04T09:20:53;14.00;99.90
5492;DHT22;2768;53.540;10.224;2022-10-04T09:26:52;14.30;99.90
5492;DHT22;2768;53.540;10.224;2022-10-04T09:33:07;14.30;99.90
5492;DHT22;2768;53.540;10.224;2022-10-04T09:39:26;14.20;99.90
5492;DHT22;2768;53.540;10.224;2022-10-04T09:45:35;14.30;99.90
5492;DHT22;2768;53.540;10.224;2022-10-04T09:51:53;14.40;99.90
5492;DHT22;2768;53.540;10.224;2022-10-04T10:04:34;14.60;99.90
5492;DHT22;2768;53.540;10.224;2022-10-04T10:10:37;14.70;99.90
5492;DHT22;2768;53.540;10.224;2022-10-04T10:16:58;14.90;99.90
5492;DHT22;2768;53.540;10.224;2022-10-04T10:23:02;15.00;99.90
5492;DHT22;2768;53.540;10.224;2022-10-04T10:35:36;15.10;99.90
5492;DHT22;2768;53.540;10.224;2022-10-04T10:41:46;15.20;99.90
5492;DHT22;2768;53.540;10.224;2022-10-04T10:47:52;15.30;99.90
5492;DHT22;2768;53.540;10.224;2022-10-04T10:54:11;15.90;99.90
5492;DHT22;2768;53.540;10.224;2022-10-04T11:00:21;16.30;99.90
5492;DHT22;2768;53.540;10.224;2022-10-04T11:13:10;17.30;99.90
5492;DHT22;2768;53.540;10.224;2022-10-04T11:19:43;17.70;99.90
5492;DHT22;2768;53.540;10.224;2022-10-04T11:25:58;18.20;99.90
5492;DHT22;2768;53.540;10.224;2022-10-04T11:51:46;18.00;99.90
5492;DHT22;2768;53.540;10.224;2022-10-04T11:57:51;17.50;99.90
5492;DHT22;2768;53.540;10.224;2022-10-04T12:04:00;17.30;99.90
5492;DHT22;2768;53.540;10.224;2022-10-04T12:10:16;17.50;99.90
5492;DHT22;2768;53.540;10.224;2022-10-04T12:16:36;17.50;99.90
5492;DHT22;2768;53.540;10.224;2022-10-04T12:22:55;17.60;99.90
5492;DHT22;2768;53.540;10.224;2022-10-04T12:29:08;17.90;99.90
5492;DHT22;2768;53.540;10.224;2022-10-04T12:35:18;17.90;99.90
5492;DHT22;2768;53.540;10.224;2022-10-04T12:41:23;18.00;99.90
5492;DHT22;2768;53.540;10.224;2022-10-04T12:48:01;18.10;99.90
5492;DHT22;2768;53.540;10.224;2022-10-04T12:54:00;18.40;99.90
5492;DHT22;2768;53.540;10.224;2022-10-04T13:00:11;18.90;99.90
5492;DHT22;2768;53.540;10.224;2022-10-04T13:06:16;19.00;99.90
5492;DHT22;2768;53.540;10.224;2022-10-04T13:12:22;19.20;99.90
5492;DHT22;2768;53.540;10.224;2022-10-04T13:18:25;19.50;99.90
5492;DHT22;2768;53.540;10.224;2022-10-04T13:24:28;19.70;99.90
5492;DHT22;2768;53.540;10.224;2022-10-04T13:30:25;19.60;96.70
5492;DHT22;2768;53.540;10.224;2022-10-04T13:36:23;19.60;88.40
5492;DHT22;2768;53.540;10.224;2022-10-04T13:42:32;19.70;80.40
5492;DHT22;2768;53.540;10.224;2022-10-04T13:48:44;19.70;67.40
5492;DHT22;2768;53.540;10.224;2022-10-04T13:54:48;19.60;58.50
5492;DHT22;2768;53.540;10.224;2022-10-04T14:07:49;20.20;57.40
5492;DHT22;2768;53.540;10.224;2022-10-04T14:20:23;20.20;40.40
5492;DHT22;2768;53.540;10.224;2022-10-04T14:26:40;20.00;34.10
5492;DHT22;2768;53.540;10.224;2022-10-04T14:39:23;20.10;26.60
5492;DHT22;2768;53.540;10.224;2022-10-04T14:45:37;20.30;28.50
5492;DHT22;2768;53.540;10.224;2022-10-04T14:51:58;20.50;20.60
5492;DHT22;2768;53.540;10.224;2022-10-04T14:58:04;20.30;14.20
5492;DHT22;2768;53.540;10.224;2022-10-04T15:04:18;20.50;12.90
5492;DHT22;2768;53.540;10.224;2022-10-04T15:10:21;20.40;4.80
5492;DHT22;2768;53.540;10.224;2022-10-04T15:16:28;20.40;6.30
5492;DHT22;2768;53.540;10.224;2022-10-04T15:22:27;20.40;6.90
5492;DHT22;2768;53.540;10.224;2022-10-04T15:28:45;20.10;1.00
5492;DHT22;2768;53.540;10.224;2022-10-04T15:34:49;19.90;1.00
5492;DHT22;2768;53.540;10.224;2022-10-04T15:41:01;19.60;1.00
5492;DHT22;2768;53.540;10.224;2022-10-04T15:47:07;19.40;1.20
5492;DHT22;2768;53.540;10.224;2022-10-04T15:53:28;19.30;3.80
5492;DHT22;2768;53.540;10.224;2022-10-04T15:59:44;19.30;6.90
5492;DHT22;2768;53.540;10.224;2022-10-04T16:05:43;19.20;6.60
5492;DHT22;2768;53.540;10.224;2022-10-04T16:11:48;19.00;10.60
5492;DHT22;2768;53.540;10.224;2022-10-04T16:17:52;18.90;13.10
5492;DHT22;2768;53.540;10.224;2022-10-04T16:30:25;18.80;18.40
5492;DHT22;2768;53.540;10.224;2022-10-04T16:36:22;18.70;18.50
5492;DHT22;2768;53.540;10.224;2022-10-04T16:42:21;18.70;21.00
5492;DHT22;2768;53.540;10.224;2022-10-04T16:48:36;18.50;19.00
5492;DHT22;2768;53.540;10.224;2022-10-04T16:54:47;18.30;21.30
5492;DHT22;2768;53.540;10.224;2022-10-04T17:00:49;18.20;23.90
5492;DHT22;2768;53.540;10.224;2022-10-04T17:07:12;18.20;26.00
5492;DHT22;2768;53.540;10.224;2022-10-04T17:13:20;18.00;26.30
5492;DHT22;2768;53.540;10.224;2022-10-04T17:19:24;17.80;25.50
5492;DHT22;2768;53.540;10.224;2022-10-04T17:25:27;17.90;31.10
5492;DHT22;2768;53.540;10.224;2022-10-04T17:31:30;17.70;28.10
5492;DHT22;2768;53.540;10.224;2022-10-04T17:37:32;17.40;26.60
5492;DHT22;2768;53.540;10.224;2022-10-04T17:43:36;17.40;31.40
5492;DHT22;2768;53.540;10.224;2022-10-04T17:49:42;17.50;39.30
5492;DHT22;2768;53.540;10.224;2022-10-04T17:55:57;17.30;36.80
5492;DHT22;2768;53.540;10.224;2022-10-04T18:01:59;17.20;40.70
5492;DHT22;2768;53.540;10.224;2022-10-04T18:07:58;17.20;46.70
5492;DHT22;2768;53.540;10.224;2022-10-04T18:13:58;17.20;49.90
5492;DHT22;2768;53.540;10.224;2022-10-04T18:20:14;17.10;49.40
5492;DHT22;2768;53.540;10.224;2022-10-04T18:26:17;17.10;56.90
5492;DHT22;2768;53.540;10.224;2022-10-04T18:32:15;17.10;59.00
5492;DHT22;2768;53.540;10.224;2022-10-04T18:38:27;17.10;60.80
5492;DHT22;2768;53.540;10.224;2022-10-04T18:44:22;17.00;59.10
5492;DHT22;2768;53.540;10.224;2022-10-04T18:50:29;16.80;55.80
5492;DHT22;2768;53.540;10.224;2022-10-04T18:56:24;16.70;63.50
5492;DHT22;2768;53.540;10.224;2022-10-04T19:02:31;16.70;64.70
5492;DHT22;2768;53.540;10.224;2022-10-04T19:08:35;16.50;64.50
5492;DHT22;2768;53.540;10.224;2022-10-04T19:14:36;16.50;68.30
5492;DHT22;2768;53.540;10.224;2022-10-04T19:20:39;16.40;73.80
5492;DHT22;2768;53.540;10.224;2022-10-04T19:26:36;16.30;76.40
5492;DHT22;2768;53.540;10.224;2022-10-04T19:32:41;16.50;88.00
5492;DHT22;2768;53.540;10.224;2022-10-04T19:38:51;16.70;89.30
5492;DHT22;2768;53.540;10.224;2022-10-04T19:45:04;16.70;79.70
5492;DHT22;2768;53.540;10.224;2022-10-04T19:51:10;16.40;79.50
5492;DHT22;2768;53.540;10.224;2022-10-04T19:57:09;16.10;80.40
5492;DHT22;2768;53.540;10.224;2022-10-04T20:03:09;16.20;90.40
5492;DHT22;2768;53.540;10.224;2022-10-04T20:09:23;16.30;93.10
5492;DHT22;2768;53.540;10.224;2022-10-04T20:15:41;16.40;93.30
5492;DHT22;2768;53.540;10.224;2022-10-04T20:21:35;16.40;93.30
5492;DHT22;2768;53.540;10.224;2022-10-04T20:27:59;16.40;91.90
5492;DHT22;2768;53.540;10.224;2022-10-04T20:33:53;16.40;92.00
5492;DHT22;2768;53.540;10.224;2022-10-04T20:39:55;16.40;93.50
5492;DHT22;2768;53.540;10.224;2022-10-04T20:45:51;16.50;95.50
5492;DHT22;2768;53.540;10.224;2022-10-04T20:51:46;16.50;95.50
5492;DHT22;2768;53.540;10.224;2022-10-04T20:57:40;16.40;93.90
5492;DHT22;2768;53.540;10.224;2022-10-04T21:03:35;16.30;96.90
5492;DHT22;2768;53.540;10.224;2022-10-04T21:09:30;16.20;97.20
5492;DHT22;2768;53.540;10.224;2022-10-04T21:15:23;16.10;97.90
5492;DHT22;2768;53.540;10.224;2022-10-04T21:27:41;16.30;98.60
5492;DHT22;2768;53.540;10.224;2022-10-04T21:33:35;16.20;99.90
5492;DHT22;2768;53.540;10.224;2022-10-04T21:39:29;16.20;99.90
5492;DHT22;2768;53.540;10.224;2022-10-04T21:45:24;16.30;99.90
5492;DHT22;2768;53.540;10.224;2022-10-04T21:51:18;16.30;99.90
5492;DHT22;2768;53.540;10.224;2022-10-04T21:57:11;16.20;99.90
5492;DHT22;2768;53.540;10.224;2022-10-04T22:03:06;16.10;99.90
5492;DHT22;2768;53.540;10.224;2022-10-04T22:08:59;16.10;99.90
5492;DHT22;2768;53.540;10.224;2022-10-04T22:14:52;15.90;99.90
5492;DHT22;2768;53.540;10.224;2022-10-04T22:20:47;15.60;99.90
5492;DHT22;2768;53.540;10.224;2022-10-04T22:26:40;15.50;99.90
5492;DHT22;2768;53.540;10.224;2022-10-04T22:32:34;15.50;99.90
5492;DHT22;2768;53.540;10.224;2022-10-04T22:38:28;15.70;99.90
5492;DHT22;2768;53.540;10.224;2022-10-04T22:44:24;15.70;99.90
5492;DHT22;2768;53.540;10.224;2022-10-04T22:50:28;15.60;99.90
5492;DHT22;2768;53.540;10.224;2022-10-04T22:56:24;15.50;99.90
5492;DHT22;2768;53.540;10.224;2022-10-04T23:02:19;15.50;99.90
5492;DHT22;2768;53.540;10.224;2022-10-04T23:08:15;15.40;99.90
5492;DHT22;2768;53.540;10.224;2022-10-04T23:14:10;15.30;99.90
5492;DHT22;2768;53.540;10.224;2022-10-04T23:20:09;15.30;99.90
5492;DHT22;2768;53.540;10.224;2022-10-04T23:26:11;15.40;99.90
5492;DHT22;2768;53.540;10.224;2022-10-04T23:32:10;15.40;99.90
5492;DHT22;2768;53.540;10.224;2022-10-04T23:38:03;15.30;99.90
5492;DHT22;2768;53.540;10.224;2022-10-04T23:43:57;15.30;99.90
5492;DHT22;2768;53.540;10.224;2022-10-04T23:49:52;15.20;99.90
5492;DHT22;2768;53.540;10.224;2022-10-04T23:55:46;15.10;99.90
